Time;durP1;ratioP1;P1;durP2;ratioP2;P2;SDS_P1;SDS_P2;PMS_P1;PMS_P2;Temp;Humidity;BMP_temperature;BMP_pressure;BME280_temperature;BME280_humidity;BME280_pressure;Samples;Min_cycle;Max_cycle;Signal;HPM_P1;HPM_P2
2022/09/11 00:00:35;;;;;;;24.33;18.08;;;;;;;13.29;96.72;101712.81;4858148;29;20045;-79
2022/09/11 00:03:00;;;;;;;23.52;17.98;;;;;;;13.24;96.47;101709.34;4843098;29;20033;-79
2022/09/11 00:05:26;;;;;;;21.60;16.05;;;;;;;13.20;95.40;101704.97;4827448;29;20086;-79
2022/09/11 00:07:52;;;;;;;21.90;17.92;;;;;;;13.17;95.95;101707.72;4856253;29;20050;-79
2022/09/11 00:10:17;;;;;;;21.55;17.13;;;;;;;13.17;96.53;101701.53;4859213;29;20028;-79
2022/09/11 00:12:43;;;;;;;22.17;17.25;;;;;;;13.10;96.48;101699.00;4859733;29;20406;-79
2022/09/11 00:15:09;;;;;;;23.92;16.23;;;;;;;13.07;96.00;101704.34;4857754;29;20041;-79
2022/09/11 00:17:36;;;;;;;18.88;15.38;;;;;;;13.04;95.28;101706.19;4847983;29;20069;-79
2022/09/11 00:20:03;;;;;;;23.30;15.98;;;;;;;13.01;96.89;101703.59;4856182;29;20385;-79
2022/09/11 00:22:29;;;;;;;23.10;17.10;;;;;;;12.99;97.04;101708.06;4850369;29;20113;-79
2022/09/11 00:24:54;;;;;;;23.38;16.13;;;;;;;12.95;97.31;101701.03;4853509;29;20041;-79
2022/09/11 00:27:20;;;;;;;21.23;16.13;;;;;;;12.89;97.26;101702.03;4859498;29;20091;-79
2022/09/11 00:29:45;;;;;;;23.98;16.63;;;;;;;12.87;96.93;101701.19;4858987;29;20181;-79
2022/09/11 00:32:11;;;;;;;23.73;17.00;;;;;;;12.83;96.98;101710.09;4844997;29;20034;-79
2022/09/11 00:34:38;;;;;;;23.02;16.95;;;;;;;12.84;98.30;101710.06;4857451;29;20045;-79
2022/09/11 00:37:04;;;;;;;23.75;17.20;;;;;;;12.82;98.04;101717.19;4869958;29;20061;-79
2022/09/11 00:39:30;;;;;;;19.25;16.42;;;;;;;12.77;97.45;101712.88;4849298;29;20038;-79
2022/09/11 00:41:56;;;;;;;21.73;15.68;;;;;;;12.78;96.93;101709.28;4857779;29;20041;-79
2022/09/11 00:44:25;;;;;;;23.60;16.52;;;;;;;12.76;97.70;101713.75;4857436;29;20143;-79
2022/09/11 00:46:55;;;;;;;20.88;16.13;;;;;;;12.72;96.67;101706.75;4842104;29;20170;-79
2022/09/11 00:49:32;;;;;;;20.15;14.82;;;;;;;12.72;97.16;101714.72;4857016;29;20125;-79
2022/09/11 00:52:20;;;;;;;20.98;16.30;;;;;;;12.67;96.35;101710.38;4857499;29;20041;-79
2022/09/11 00:54:53;;;;;;;23.55;15.27;;;;;;;12.66;95.98;101711.28;4848109;29;20421;-79
2022/09/11 00:57:22;;;;;;;22.48;16.15;;;;;;;12.68;97.05;101708.56;4854589;29;20041;-79
2022/09/11 00:59:49;;;;;;;23.80;16.52;;;;;;;12.67;97.16;101710.38;4855140;29;20048;-78
2022/09/11 01:02:19;;;;;;;28.45;19.70;;;;;;;12.66;97.04;101716.59;4859054;29;20409;-79
2022/09/11 01:04:44;;;;;;;25.52;19.50;;;;;;;12.70;98.94;101728.91;4872809;29;20045;-79
2022/09/11 01:07:12;;;;;;;32.55;21.00;;;;;;;12.72;99.40;101720.91;4862777;29;20033;-78
2022/09/11 01:09:41;;;;;;;32.92;23.88;;;;;;;12.73;99.01;101727.97;4862837;29;20041;-76
2022/09/11 01:12:17;;;;;;;32.50;22.27;;;;;;;12.77;99.55;101724.38;4849400;29;20030;-76
2022/09/11 01:14:46;;;;;;;29.33;20.90;;;;;;;12.77;99.25;101729.69;4851241;29;20494;-76
2022/09/11 01:17:27;;;;;;;31.15;20.17;;;;;;;12.79;98.85;101729.69;4876132;29;20334;-76
2022/09/11 01:20:31;;;;;;;28.02;19.30;;;;;;;12.79;97.61;101730.53;4844363;29;20045;-76
2022/09/11 01:23:24;;;;;;;31.08;19.67;;;;;;;12.78;97.96;101738.53;4789772;29;20477;-76
2022/09/11 01:26:23;;;;;;;28.70;21.30;;;;;;;12.79;99.56;101729.69;4853669;29;20079;-76
2022/09/11 01:29:00;;;;;;;26.85;20.10;;;;;;;12.75;99.21;101734.16;4857344;29;20045;-76
2022/09/11 01:31:32;;;;;;;26.65;18.58;;;;;;;12.70;98.35;101739.53;4851746;29;20121;-76
2022/09/11 01:34:28;;;;;;;24.20;18.67;;;;;;;12.66;98.25;101732.53;4857598;29;20447;-76
2022/09/11 01:37:02;;;;;;;28.13;19.88;;;;;;;12.64;98.57;101747.63;4839995;29;20081;-76
2022/09/11 01:39:40;;;;;;;24.52;18.80;;;;;;;12.58;97.52;101739.72;4857442;29;20034;-76
2022/09/11 01:42:13;;;;;;;26.58;19.63;;;;;;;12.56;97.23;101738.91;4867544;29;20459;-76
2022/09/11 01:44:51;;;;;;;30.30;21.20;;;;;;;12.62;98.84;101745.91;4848415;29;20128;-76
2022/09/11 01:47:18;;;;;;;34.88;22.58;;;;;;;12.61;99.53;101745.03;4860700;29;20072;-76
2022/09/11 01:49:49;;;;;;;34.72;23.20;;;;;;;12.64;100.00;101752.06;4860031;29;20061;-76
2022/09/11 01:52:21;;;;;;;33.80;22.35;;;;;;;12.61;99.88;101750.34;4860748;29;20044;-76
2022/09/11 01:54:52;;;;;;;27.23;20.00;;;;;;;12.58;99.00;101747.72;4847381;29;20034;-76
2022/09/11 01:57:28;;;;;;;24.08;19.40;;;;;;;12.55;98.21;101758.38;4857758;29;20120;-76
2022/09/11 01:59:59;;;;;;;23.75;17.77;;;;;;;12.52;97.80;101745.16;4859907;29;20120;-76
2022/09/11 02:02:33;;;;;;;32.47;21.02;;;;;;;12.50;98.04;101746.97;4860490;29;20033;-76
2022/09/11 02:05:14;;;;;;;26.10;20.90;;;;;;;12.42;97.23;101744.41;4859797;29;20061;-76
2022/09/11 02:07:48;;;;;;;;;;;;;;;12.54;96.88;101746.03;4857644;29;20071;-76
2022/09/11 02:10:19;;;;;;;25.58;17.95;;;;;;;12.43;97.32;101738.19;4862909;29;19916;-76
2022/09/11 02:13:23;;;;;;;22.17;18.30;;;;;;;12.44;96.98;101747.94;4860200;29;20040;-76
2022/09/11 02:15:54;;;;;;;22.60;17.13;;;;;;;12.32;95.77;101742.81;4852320;29;20495;-76
2022/09/11 02:18:28;;;;;;;26.33;19.02;;;;;;;12.32;97.86;101742.81;4873491;29;20085;-76
2022/09/11 02:20:54;;;;;;;27.70;18.80;;;;;;;12.28;97.30;101751.72;4860863;29;20045;-76
2022/09/11 02:23:20;;;;;;;24.15;18.50;;;;;;;12.27;98.25;101753.50;4857700;29;20060;-76
2022/09/11 02:25:46;;;;;;;24.00;19.50;;;;;;;12.28;98.92;101751.72;4857979;29;20041;-76
2022/09/11 02:28:12;;;;;;;24.95;19.15;;;;;;;12.29;98.39;101753.47;4859424;29;20102;-76
2022/09/11 02:30:41;;;;;;;28.00;19.83;;;;;;;12.32;98.59;101766.72;4841031;29;20070;-76
2022/09/11 02:33:31;;;;;;;28.08;20.73;;;;;;;12.35;98.72;101769.31;4853335;29;20037;-76
2022/09/11 02:36:09;;;;;;;31.70;20.92;;;;;;;12.33;98.79;101760.47;4846856;29;20062;-76
2022/09/11 02:38:52;;;;;;;30.17;20.80;;;;;;;12.32;98.83;101765.84;4859272;29;20037;-76
2022/09/11 02:41:33;;;;;;;26.17;19.30;;;;;;;12.24;97.70;101758.84;4859624;29;20478;-76
2022/09/11 02:44:23;;;;;;;25.23;18.88;;;;;;;12.23;98.48;101759.72;4855168;29;20034;-76
2022/09/11 02:46:56;;;;;;;19.10;14.82;;;;;;;12.17;96.65;101757.19;4845277;29;20444;-76
2022/09/11 02:49:36;;;;;;;25.45;19.42;;;;;;;12.13;96.84;101760.75;4846596;29;20505;-76
2022/09/11 02:52:31;;;;;;;30.15;21.25;;;;;;;12.15;98.73;101758.09;4846072;29;20049;-76
2022/09/11 02:55:06;;;;;;;24.48;17.73;;;;;;;12.05;97.34;101762.66;4843860;29;20052;-76
2022/09/11 02:57:38;;;;;;;30.80;20.02;;;;;;;12.02;97.56;101766.22;4864420;29;20056;-76
2022/09/11 03:00:07;;;;;;;27.23;19.52;;;;;;;12.01;97.33;101769.75;4843429;29;20093;-76
2022/09/11 03:02:38;;;;;;;23.58;18.83;;;;;;;11.99;97.26;101768.94;4843635;29;20390;-76
2022/09/11 03:05:05;;;;;;;30.58;20.63;;;;;;;11.98;97.61;101775.13;4858658;29;20100;-76
2022/09/11 03:07:32;;;;;;;25.67;18.85;;;;;;;11.91;97.95;101778.75;4859154;29;20286;-76
2022/09/11 03:09:58;;;;;;;22.92;18.42;;;;;;;11.87;97.68;101778.78;4858600;29;20044;-76
2022/09/11 03:12:24;;;;;;;29.30;19.90;;;;;;;11.88;98.04;101777.91;4859147;29;20038;-76
2022/09/11 03:14:50;;;;;;;23.92;18.85;;;;;;;11.81;97.64;101783.25;4858439;29;20045;-76
2022/09/11 03:17:16;;;;;;;28.33;20.33;;;;;;;11.86;99.50;101782.31;4852354;29;20106;-76
2022/09/11 03:19:42;;;;;;;30.35;20.45;;;;;;;11.88;99.91;101788.53;4854991;29;20434;-76
2022/09/11 03:22:07;;;;;;;26.10;20.17;;;;;;;11.86;98.31;101788.50;4858625;29;20097;-76
2022/09/11 03:24:33;;;;;;;33.42;20.33;;;;;;;11.87;98.88;101781.44;4873896;29;20069;-76
2022/09/11 03:26:59;;;;;;;33.67;22.00;;;;;;;11.89;99.89;101787.63;4858246;29;20030;-76
2022/09/11 03:29:25;;;;;;;82.20;23.90;;;;;;;11.89;100.00;101785.84;4858457;29;20033;-76
2022/09/11 03:31:51;;;;;;;74.15;23.67;;;;;;;11.92;100.00;101787.59;4843222;29;20156;-76
2022/09/11 03:34:18;;;;;;;74.97;23.60;;;;;;;11.94;100.00;101775.16;4842917;29;20060;-75
2022/09/11 03:36:46;;;;;;;100.85;22.20;;;;;;;11.92;99.60;101780.53;4858342;29;20045;-76
2022/09/11 03:39:12;;;;;;;65.70;22.25;;;;;;;11.92;99.63;101782.28;4873788;29;20034;-76
2022/09/11 03:41:38;;;;;;;90.50;22.35;;;;;;;11.91;99.72;101786.72;4843157;29;20049;-76
2022/09/11 03:44:03;;;;;;;78.97;24.33;;;;;;;11.93;100.00;101786.69;4845105;29;20045;-75
2022/09/11 03:46:29;;;;;;;93.05;24.83;;;;;;;11.91;99.81;101783.19;4858339;29;20537;-76
2022/09/11 03:48:54;;;;;;;124.28;24.85;;;;;;;11.92;100.00;101785.84;4873417;29;20105;-75
2022/09/11 03:51:20;;;;;;;56.75;21.77;;;;;;;11.90;100.00;101790.28;4865692;29;20101;-75
2022/09/11 03:53:47;;;;;;;73.35;22.23;;;;;;;11.88;99.75;101788.53;4840284;29;20100;-75
2022/09/11 03:56:13;;;;;;;60.03;23.80;;;;;;;11.90;99.94;101792.06;4827641;29;20427;-76
2022/09/11 03:58:44;;;;;;;66.80;22.45;;;;;;;11.90;100.00;101789.41;4864293;29;20091;-75
2022/09/11 04:01:12;;;;;;;31.58;22.50;;;;;;;11.89;100.00;101787.63;4842708;29;20037;-75
2022/09/11 04:03:40;;;;;;;85.38;22.73;;;;;;;11.87;100.00;101784.09;4842628;29;20033;-75
2022/09/11 04:06:08;;;;;;;48.17;21.95;;;;;;;11.84;99.86;101788.56;4857967;29;20026;-75
2022/09/11 04:08:35;;;;;;;36.28;22.27;;;;;;;11.83;99.78;101783.25;4862019;29;20041;-75
2022/09/11 04:11:05;;;;;;;47.58;22.58;;;;;;;11.83;99.70;101792.09;4851875;29;20509;-75
2022/09/11 04:13:35;;;;;;;66.90;24.35;;;;;;;11.86;100.00;101788.50;4857654;29;20033;-75
2022/09/11 04:16:06;;;;;;;95.72;23.30;;;;;;;11.81;100.00;101788.56;4861827;29;20092;-75
2022/09/11 04:18:36;;;;;;;28.67;21.35;;;;;;;11.79;100.00;101792.13;4855889;29;20124;-75
2022/09/11 04:21:09;;;;;;;53.67;19.30;;;;;;;11.78;99.86;101782.44;4847336;29;20439;-75
2022/09/11 04:23:36;;;;;;;84.45;21.33;;;;;;;11.79;100.00;101786.81;4857281;29;20049;-76
2022/09/11 04:26:02;;;;;;;71.35;21.50;;;;;;;11.78;100.00;101793.91;4842406;29;20490;-75
2022/09/11 04:28:29;;;;;;;37.63;20.10;;;;;;;11.78;100.00;101787.72;4858976;29;20482;-75
2022/09/11 04:30:56;;;;;;;180.88;21.70;;;;;;;11.77;100.00;101791.25;4857692;29;20116;-75
2022/09/11 04:33:24;;;;;;;105.20;21.90;;;;;;;11.73;100.00;101787.78;4857588;29;20037;-76
2022/09/11 04:35:50;;;;;;;64.88;19.70;;;;;;;11.75;100.00;101785.13;4869850;29;20082;-75
2022/09/11 04:38:17;;;;;;;62.45;20.52;;;;;;;11.74;100.00;101789.53;4856937;29;20064;-75
2022/09/11 04:40:44;;;;;;;55.72;19.67;;;;;;;11.72;100.00;101796.66;4872830;29;20184;-76
2022/09/11 04:43:10;;;;;;;33.05;20.73;;;;;;;11.74;100.00;101794.84;4873185;29;20398;-76
2022/09/11 04:45:48;;;;;;;73.22;19.35;;;;;;;11.76;100.00;101792.16;4829271;29;20049;-76
2022/09/11 04:48:14;;;;;;;50.53;18.75;;;;;;;11.76;100.00;101803.66;4834886;29;20510;-76
2022/09/11 04:50:40;;;;;;;115.47;20.10;;;;;;;11.79;100.00;101795.69;4857157;29;20116;-76
2022/09/11 04:53:12;;;;;;;71.72;19.13;;;;;;;11.82;100.00;101797.44;4848115;29;20038;-76
2022/09/11 04:55:39;;;;;;;92.38;19.00;;;;;;;11.83;100.00;101797.38;4850388;29;20148;-76
2022/09/11 04:58:05;;;;;;;126.90;19.13;;;;;;;11.87;100.00;101795.63;4857327;29;20453;-76
2022/09/11 05:00:32;;;;;;;117.10;18.65;;;;;;;11.89;100.00;101798.25;4869601;29;20052;-76
2022/09/11 05:02:57;;;;;;;239.32;18.88;;;;;;;11.89;100.00;101796.47;4839214;29;20041;-76
2022/09/11 05:05:24;;;;;;;154.48;17.02;;;;;;;11.89;100.00;101793.81;4843738;29;20482;-76
2022/09/11 05:07:49;;;;;;;89.55;16.52;;;;;;;11.91;100.00;101799.09;4852748;29;20113;-76
2022/09/11 05:10:16;;;;;;;106.85;15.95;;;;;;;11.88;100.00;101797.38;4827012;29;20044;-76
2022/09/11 05:12:42;;;;;;;45.58;12.75;;;;;;;11.83;100.00;101801.81;4842211;29;20065;-76
2022/09/11 05:15:09;;;;;;;73.30;14.90;;;;;;;11.79;100.00;101805.41;4854637;29;20585;-76
2022/09/11 05:17:34;;;;;;;40.05;13.57;;;;;;;11.79;100.00;101810.72;4847061;29;20053;-76
2022/09/11 05:20:02;;;;;;;131.93;15.55;;;;;;;11.77;100.00;101818.69;4841343;29;20413;-76
2022/09/11 05:22:29;;;;;;;49.53;12.88;;;;;;;11.79;100.00;101816.00;4857206;29;20142;-76
2022/09/11 05:24:57;;;;;;;50.13;13.48;;;;;;;11.83;100.00;101821.28;4837290;29;20045;-76
2022/09/11 05:27:23;;;;;;;72.50;14.15;;;;;;;11.84;100.00;101827.44;4869754;29;20057;-76
2022/09/11 05:29:49;;;;;;;74.95;13.05;;;;;;;11.86;100.00;101833.63;4851416;29;20084;-76
2022/09/11 05:32:15;;;;;;;42.90;13.10;;;;;;;11.88;100.00;101831.88;4842094;29;20063;-76
2022/09/11 05:34:40;;;;;;;38.22;13.20;;;;;;;11.89;100.00;101838.94;4838580;29;20046;-76
2022/09/11 05:37:09;;;;;;;44.05;13.40;;;;;;;11.92;100.00;101836.25;4867182;29;20060;-76
2022/09/11 05:39:41;;;;;;;34.95;13.57;;;;;;;11.93;100.00;101847.75;4846509;29;20385;-75
2022/09/11 05:42:08;;;;;;;53.50;12.80;;;;;;;11.94;100.00;101852.16;4839377;29;20422;-75
2022/09/11 05:44:37;;;;;;;51.30;12.98;;;;;;;11.92;100.00;101860.16;4869375;29;20034;-75
2022/09/11 05:47:04;;;;;;;30.27;12.20;;;;;;;11.92;100.00;101859.25;4840155;29;20065;-75
2022/09/11 05:49:29;;;;;;;43.13;13.10;;;;;;;11.90;99.66;101864.59;4857389;29;20458;-76
2022/09/11 05:51:58;;;;;;;57.25;12.98;;;;;;;11.82;100.00;101862.00;4845782;29;20140;-75
2022/09/11 05:54:25;;;;;;;55.38;13.68;;;;;;;11.80;99.98;101865.56;4862830;29;20047;-75
2022/09/11 05:56:52;;;;;;;32.53;13.02;;;;;;;11.80;99.88;101874.41;4845226;29;20101;-75
2022/09/11 05:59:22;;;;;;;55.30;12.95;;;;;;;11.83;100.00;101869.03;4853347;29;20052;-76
2022/09/11 06:01:49;;;;;;;44.13;11.80;;;;;;;11.86;99.93;101878.75;4826834;29;20056;-75
2022/09/11 06:04:26;;;;;;;28.17;11.85;;;;;;;11.87;100.00;101874.34;4854799;29;20541;-75
2022/09/11 06:06:52;;;;;;;62.20;12.50;;;;;;;11.89;99.92;101885.84;4847766;29;20045;-75
2022/09/11 06:09:18;;;;;;;82.18;12.68;;;;;;;11.91;100.00;101884.91;4865916;29;20570;-76
2022/09/11 06:11:43;;;;;;;51.97;12.23;;;;;;;11.93;100.00;101885.78;4843845;29;20515;-76
2022/09/11 06:14:12;;;;;;;59.13;12.85;;;;;;;11.95;100.00;101889.31;4872369;29;20094;-76
2022/09/11 06:16:38;;;;;;;28.50;12.30;;;;;;;12.00;100.00;101890.13;4842067;29;20037;-76
2022/09/11 06:19:09;;;;;;;71.95;13.35;;;;;;;12.06;100.00;101891.84;4844459;29;20080;-76
2022/09/11 06:21:35;;;;;;;28.35;13.35;;;;;;;12.12;100.00;101889.13;4844409;29;20072;-76
2022/09/11 06:24:07;;;;;;;56.97;13.25;;;;;;;12.17;100.00;101891.72;4845176;29;20045;-76
2022/09/11 06:26:34;;;;;;;51.42;13.43;;;;;;;12.19;100.00;101892.56;4859856;29;20128;-76
2022/09/11 06:28:59;;;;;;;34.50;12.73;;;;;;;12.22;100.00;101905.84;4859601;29;20045;-76
2022/09/11 06:31:26;;;;;;;62.28;12.52;;;;;;;12.27;100.00;101904.88;4859920;29;20050;-76
2022/09/11 06:33:53;;;;;;;100.63;13.82;;;;;;;12.26;100.00;101907.53;4859624;29;20036;-76
2022/09/11 06:36:22;;;;;;;117.53;13.65;;;;;;;12.26;100.00;101910.19;4859670;29;20041;-76
2022/09/11 06:38:53;;;;;;;146.00;14.13;;;;;;;12.30;100.00;101911.94;4839793;29;20042;-76
2022/09/11 06:41:19;;;;;;;110.72;14.52;;;;;;;12.34;100.00;101911.00;4840121;29;20426;-76
2022/09/11 06:43:45;;;;;;;84.15;13.85;;;;;;;12.35;100.00;101910.09;4824567;29;20058;-76
2022/09/11 06:46:13;;;;;;;49.10;13.57;;;;;;;12.43;100.00;101915.31;4824758;29;20049;-76
2022/09/11 06:48:43;;;;;;;111.95;15.00;;;;;;;12.48;100.00;101919.66;4850172;29;20363;-76
2022/09/11 06:51:10;;;;;;;67.72;13.45;;;;;;;12.53;100.00;101918.72;4824574;29;20044;-76
2022/09/11 06:53:37;;;;;;;82.78;13.95;;;;;;;12.56;100.00;101927.56;4839632;29;20046;-76
2022/09/11 06:56:11;;;;;;;110.85;14.85;;;;;;;12.60;100.00;101929.25;4835735;29;20038;-76
2022/09/11 06:58:47;;;;;;;64.57;14.82;;;;;;;12.73;100.00;101923.78;4824719;29;20101;-76
2022/09/11 07:01:16;;;;;;;53.72;16.02;;;;;;;12.84;100.00;101924.53;4835746;29;20141;-76
2022/09/11 07:03:45;;;;;;;108.88;16.23;;;;;;;12.86;100.00;101923.59;4839559;29;20601;-76
2022/09/11 07:06:14;;;;;;;80.45;15.07;;;;;;;12.87;100.00;101921.81;4839511;29;20113;-76
2022/09/11 07:08:42;;;;;;;72.07;15.63;;;;;;;12.94;100.00;101925.28;4840426;29;20038;-76
2022/09/11 07:11:11;;;;;;;145.63;15.10;;;;;;;12.99;100.00;101924.31;4859216;29;20061;-76
2022/09/11 07:13:38;;;;;;;136.43;15.02;;;;;;;13.05;100.00;101926.84;4853157;29;20479;-76
2022/09/11 07:16:07;;;;;;;106.32;14.48;;;;;;;13.11;100.00;101917.94;4840406;29;20437;-76
2022/09/11 07:18:43;;;;;;;92.40;14.90;;;;;;;13.17;100.00;101925.78;4855286;29;20030;-75
2022/09/11 07:21:20;;;;;;;135.02;14.77;;;;;;;13.24;100.00;101923.94;4858968;29;20309;-76
2022/09/11 07:23:48;;;;;;;111.30;16.13;;;;;;;13.25;100.00;101923.91;4845408;29;20057;-76
2022/09/11 07:26:15;;;;;;;55.45;15.50;;;;;;;13.36;100.00;101917.59;4847763;29;20038;-75
2022/09/11 07:28:40;;;;;;;154.70;17.55;;;;;;;13.42;100.00;101920.13;4843797;29;20443;-75
2022/09/11 07:31:18;;;;;;;89.05;16.48;;;;;;;13.49;100.00;101922.66;4840364;29;20053;-76
2022/09/11 07:33:46;;;;;;;86.65;18.17;;;;;;;13.59;100.00;101917.19;4856771;29;20066;-76
2022/09/11 07:36:15;;;;;;;90.78;17.17;;;;;;;13.64;100.00;101915.31;4858658;29;20392;-76
2022/09/11 07:38:44;;;;;;;163.30;17.55;;;;;;;13.70;100.00;101921.44;4855874;29;20038;-76
2022/09/11 07:41:14;;;;;;;144.68;15.65;;;;;;;13.72;100.00;101913.38;4848760;29;20328;-75
2022/09/11 07:43:41;;;;;;;74.53;16.00;;;;;;;13.71;100.00;101916.97;4873720;29;20045;-76
2022/09/11 07:46:09;;;;;;;86.15;16.27;;;;;;;13.80;100.00;101919.47;4858442;29;20064;-76
2022/09/11 07:48:35;;;;;;;44.28;14.77;;;;;;;13.94;100.00;101922.75;4873766;29;20041;-76
2022/09/11 07:51:03;;;;;;;141.82;17.65;;;;;;;14.03;100.00;101927.03;4845511;29;20106;-76
2022/09/11 07:53:38;;;;;;;126.90;18.27;;;;;;;14.11;100.00;101926.88;4858236;29;20029;-76
2022/09/11 07:56:07;;;;;;;86.40;18.05;;;;;;;14.26;100.00;101926.56;4857945;29;20030;-76
2022/09/11 07:58:34;;;;;;;44.30;19.15;;;;;;;14.40;100.00;101929.84;4843016;29;20025;-76
2022/09/11 08:01:02;;;;;;;74.88;20.83;;;;;;;14.49;100.00;101934.13;4858084;29;20092;-76
2022/09/11 08:03:29;;;;;;;39.05;20.10;;;;;;;14.63;100.00;101936.50;4858299;29;20109;-76
2022/09/11 08:06:01;;;;;;;30.48;21.10;;;;;;;14.70;100.00;101942.59;4858155;29;20033;-76
2022/09/11 08:08:28;;;;;;;34.10;23.10;;;;;;;14.81;100.00;101944.13;4850123;29;20048;-76
2022/09/11 08:11:02;;;;;;;45.92;22.23;;;;;;;14.91;100.00;101944.81;4857864;29;20037;-76
2022/09/11 08:13:28;;;;;;;32.95;21.23;;;;;;;15.03;100.00;101944.53;4873478;29;20048;-76
2022/09/11 08:15:55;;;;;;;38.70;22.23;;;;;;;15.08;100.00;101946.19;4842512;29;20446;-76
2022/09/11 08:18:21;;;;;;;35.90;22.70;;;;;;;15.14;100.00;101954.94;4841644;29;20474;-76
2022/09/11 08:20:48;;;;;;;30.63;22.90;;;;;;;15.25;100.00;101960.91;4857538;29;20044;-76
2022/09/11 08:23:14;;;;;;;31.83;23.30;;;;;;;15.30;100.00;101952.78;4857635;29;20050;-76
2022/09/11 08:25:41;;;;;;;32.17;23.95;;;;;;;15.42;100.00;101960.50;4857626;29;20405;-76
2022/09/11 08:28:08;;;;;;;33.88;23.63;;;;;;;15.53;100.00;101956.69;4857816;29;20447;-76
2022/09/11 08:30:37;;;;;;;35.28;25.75;;;;;;;15.65;100.00;101953.72;4858753;29;20062;-76
2022/09/11 08:33:05;;;;;;;31.98;23.70;;;;;;;15.77;100.00;101958.78;4824331;29;20128;-76
2022/09/11 08:35:32;;;;;;;34.08;24.95;;;;;;;15.88;100.00;101959.38;4840616;29;20055;-76
2022/09/11 08:37:59;;;;;;;34.20;27.05;;;;;;;16.03;100.00;101962.59;4857672;29;20085;-76
2022/09/11 08:40:26;;;;;;;33.03;26.58;;;;;;;16.14;100.00;101965.81;4857492;29;20041;-76
2022/09/11 08:42:58;;;;;;;35.20;26.77;;;;;;;16.36;100.00;101968.78;4864648;29;20053;-76
2022/09/11 08:45:28;;;;;;;36.25;27.65;;;;;;;16.52;99.83;101969.25;4853461;29;20034;-75
2022/09/11 08:47:57;;;;;;;35.42;26.40;;;;;;;16.63;97.71;101966.25;4857644;29;20121;-76
2022/09/11 08:50:35;;;;;;;33.83;25.80;;;;;;;16.76;97.24;101967.63;4856995;29;20482;-76
2022/09/11 08:53:02;;;;;;;38.08;26.63;;;;;;;16.94;95.92;101955.56;4842252;29;20443;-76
2022/09/11 08:55:55;;;;;;;31.27;25.60;;;;;;;17.18;96.36;101969.94;4872880;29;20046;-75
2022/09/11 08:58:39;;;;;;;32.05;24.77;;;;;;;17.43;94.41;101967.34;4846519;29;20038;-75
2022/09/11 09:01:42;;;;;;;29.13;24.27;;;;;;;17.69;94.20;101958.47;4857387;29;20034;-76
2022/09/11 09:04:49;;;;;;;29.60;23.10;;;;;;;17.87;91.90;101961.47;4857409;29;20497;-75
2022/09/11 09:07:26;;;;;;;26.85;22.00;;;;;;;17.94;91.09;101965.69;4869942;29;20041;-76
2022/09/11 09:10:23;;;;;;;29.38;23.80;;;;;;;18.08;90.32;101971.47;4856202;29;20070;-75
2022/09/11 09:13:21;;;;;;;28.63;21.48;;;;;;;18.22;90.25;101965.59;4860397;29;20466;-76
2022/09/11 09:15:50;;;;;;;31.20;22.75;;;;;;;18.40;89.42;101974.78;4863437;29;20053;-76
2022/09/11 09:18:26;;;;;;;28.70;21.83;;;;;;;18.57;89.00;101971.47;4856906;29;20069;-76
2022/09/11 09:21:26;;;;;;;24.98;20.38;;;;;;;18.76;88.05;101980.59;4841847;29;20077;-75
2022/09/11 09:23:59;;;;;;;28.65;24.05;;;;;;;18.91;86.72;101977.34;4844366;29;20100;-76
2022/09/11 09:26:38;;;;;;;30.85;24.40;;;;;;;19.07;84.74;101976.75;4845707;29;20401;-76
2022/09/11 09:29:12;;;;;;;25.33;20.90;;;;;;;19.21;81.95;101981.56;4842384;29;20063;-76
2022/09/11 09:31:40;;;;;;;25.20;21.90;;;;;;;19.29;81.08;101980.34;4853489;29;20063;-75
2022/09/11 09:34:15;;;;;;;28.73;22.40;;;;;;;19.42;82.09;101987.91;4861743;29;20049;-76
2022/09/11 09:37:14;;;;;;;26.63;21.58;;;;;;;19.52;82.40;101983.88;4860691;29;20078;-76
2022/09/11 09:39:40;;;;;;;27.63;22.45;;;;;;;19.72;80.35;101981.28;4851978;29;20052;-76
2022/09/11 09:42:15;;;;;;;25.60;21.25;;;;;;;19.88;80.02;101984.22;4857539;29;20038;-76
2022/09/11 09:44:53;;;;;;;29.20;22.17;;;;;;;20.05;79.50;101980.75;4844889;29;20398;-76
2022/09/11 09:47:18;;;;;;;23.13;20.67;;;;;;;20.28;78.72;101979.78;4861778;29;20030;-76
2022/09/11 09:49:45;;;;;;;24.83;20.88;;;;;;;20.35;77.59;101978.56;4861575;29;20040;-76
2022/09/11 09:52:20;;;;;;;24.23;19.13;;;;;;;20.39;78.17;101977.47;4860468;29;20102;-76
2022/09/11 09:55:01;;;;;;;20.58;18.05;;;;;;;20.33;75.93;101979.56;4860229;29;20462;-76
2022/09/11 09:57:33;;;;;;;19.63;17.20;;;;;;;20.22;76.58;101973.78;4859078;29;20038;-76
2022/09/11 10:00:05;;;;;;;18.67;16.20;;;;;;;20.15;77.02;101982.13;4862296;29;20367;-76
2022/09/11 10:02:40;;;;;;;16.15;14.27;;;;;;;20.29;75.89;101975.25;4861532;29;20521;-76
2022/09/11 10:05:19;;;;;;;20.08;14.75;;;;;;;20.44;74.62;101977.25;4847200;29;20451;-76
2022/09/11 10:07:50;;;;;;;20.58;17.48;;;;;;;20.49;76.75;101977.91;4856948;29;20079;-76
2022/09/11 10:10:26;;;;;;;18.60;16.35;;;;;;;20.45;76.32;101978.13;4856956;29;20125;-76
2022/09/11 10:13:00;;;;;;;22.13;16.88;;;;;;;20.47;73.67;101974.41;4854697;29;20072;-76
2022/09/11 10:15:26;;;;;;;16.58;14.65;;;;;;;20.69;73.03;101982.41;4860977;29;20034;-76
2022/09/11 10:17:55;;;;;;;19.42;14.90;;;;;;;20.76;71.15;101977.63;4859582;29;20037;-76
2022/09/11 10:20:25;;;;;;;17.42;14.98;;;;;;;20.97;72.87;101976.63;4859443;29;20069;-77
2022/09/11 10:22:54;;;;;;;16.88;12.45;;;;;;;21.21;69.77;101981.78;4861068;29;20093;-77
2022/09/11 10:25:25;;;;;;;14.32;10.68;;;;;;;21.32;66.84;101974.06;4860850;29;20501;-79
2022/09/11 10:28:10;;;;;;;;;;;;;;;21.47;73.39;101978.72;4860440;29;20390;-79
2022/09/11 10:30:44;;;;;;;12.95;9.68;;;;;;;21.30;66.30;101980.47;4860896;29;20281;-79
2022/09/11 10:33:25;;;;;;;14.05;10.35;;;;;;;21.26;69.29;101971.66;4861021;29;20068;-79
2022/09/11 10:35:54;;;;;;;12.18;8.88;;;;;;;21.48;68.48;101979.56;4854993;29;20648;-80
2022/09/11 10:38:22;;;;;;;11.45;9.80;;;;;;;21.77;67.45;101969.16;4860553;29;20478;-79
2022/09/11 10:41:08;;;;;;;10.20;8.82;;;;;;;22.05;67.52;101971.31;4847822;29;20032;-79
2022/09/11 10:43:49;;;;;;;11.85;9.25;;;;;;;22.10;66.35;101966.53;4859856;29;20041;-79
2022/09/11 10:46:24;;;;;;;16.13;9.40;;;;;;;21.85;65.67;101969.63;4846005;29;20049;-79
2022/09/11 10:48:54;;;;;;;9.60;8.55;;;;;;;21.56;63.74;101969.31;4854845;29;20490;-79
2022/09/11 10:51:21;;;;;;;12.82;8.57;;;;;;;21.75;65.84;101971.06;4848701;29;20406;-79
2022/09/11 10:54:15;;;;;;;11.60;8.90;;;;;;;21.99;68.35;101975.19;4860341;29;20356;-79
2022/09/11 10:57:23;;;;;;;10.90;9.30;;;;;;;22.26;66.34;101970.22;4869913;29;20050;-79
2022/09/11 11:00:08;;;;;;;10.43;9.18;;;;;;;22.14;62.26;101976.22;4858639;29;20057;-79
2022/09/11 11:02:37;;;;;;;11.43;8.25;;;;;;;22.05;67.52;101972.16;4859321;29;20125;-80
2022/09/11 11:05:13;;;;;;;12.48;8.23;;;;;;;22.15;63.27;101959.06;4858720;29;20116;-79
2022/09/11 11:08:11;;;;;;;9.35;6.97;;;;;;;22.49;63.99;101968.09;4860552;29;20034;-79
2022/09/11 11:10:51;;;;;;;8.43;7.13;;;;;;;22.85;66.18;101967.91;4860337;29;20038;-79
2022/09/11 11:13:41;;;;;;;11.57;8.35;;;;;;;22.88;64.29;101967.75;4860243;29;20438;-80
2022/09/11 11:16:12;;;;;;;11.32;7.68;;;;;;;23.12;63.54;101964.63;4862608;29;20404;-79
2022/09/11 11:18:57;;;;;;;11.25;8.02;;;;;;;23.04;63.77;101967.78;4866158;29;20041;-81
2022/09/11 11:21:56;;;;;;;10.90;7.85;;;;;;;22.81;62.90;101974.44;4859228;29;20042;-81
2022/09/11 11:24:51;;;;;;;8.30;7.30;;;;;;;22.57;62.38;101968.53;4853433;29;20037;-79
2022/09/11 11:27:33;;;;;;;9.95;7.60;;;;;;;22.45;63.58;101974.59;4848166;29;20427;-79